Time;durP1;ratioP1;P1;durP2;ratioP2;P2;SDS_P1;SDS_P2;PMS_P1;PMS_P2;Temp;Humidity;BMP_temperature;BMP_pressure;BME280_temperature;BME280_humidity;BME280_pressure;Samples;Min_cycle;Max_cycle;Signal;HPM_P1;HPM_P2
2023/01/05 00:00:05;;;;;;;20.80;3.80;;;10.80;99.90;;;;;;4914824;28;20039;-83
2023/01/05 00:02:30;;;;;;;20.00;3.45;;;10.80;99.90;;;;;;4921027;28;20646;-83
2023/01/05 00:04:56;;;;;;;10.93;2.55;;;10.80;99.90;;;;;;4930302;28;20123;-83
2023/01/05 00:07:21;;;;;;;28.80;4.13;;;10.90;99.90;;;;;;4912841;29;20058;-83
2023/01/05 00:09:50;;;;;;;24.85;4.18;;;10.90;99.90;;;;;;4911555;29;20066;-83
2023/01/05 00:23:19;;;;;;;22.92;4.47;;;11.00;99.90;;;;;;4943611;28;20057;-83
2023/01/05 00:25:45;;;;;;;13.30;3.00;;;10.90;99.90;;;;;;4928600;28;20036;-82
2023/01/05 00:28:11;;;;;;;10.52;4.72;;;10.90;99.90;;;;;;4926273;28;20043;-83
2023/01/05 00:30:44;;;;;;;23.48;3.03;;;11.00;99.90;;;;;;4940700;28;20050;-83
2023/01/05 00:33:15;;;;;;;16.65;4.20;;;10.80;99.90;;;;;;4928405;28;20545;-83
2023/01/05 00:35:43;;;;;;;25.08;5.28;;;10.80;99.90;;;;;;4945406;28;20074;-83
2023/01/05 00:38:08;;;;;;;28.45;4.90;;;10.80;99.90;;;;;;4940756;28;20050;-83
2023/01/05 00:40:34;;;;;;;18.20;4.97;;;10.80;99.90;;;;;;4944601;28;20035;-83
2023/01/05 00:43:00;;;;;;;16.85;3.78;;;10.90;99.90;;;;;;4941067;28;20040;-83
2023/01/05 00:45:26;;;;;;;12.45;4.13;;;10.80;99.90;;;;;;4926668;28;20085;-83
2023/01/05 00:47:53;;;;;;;24.33;4.85;;;10.80;99.90;;;;;;4929446;28;20038;-83
2023/01/05 00:50:19;;;;;;;16.90;3.78;;;10.80;99.90;;;;;;4925818;28;20035;-83
2023/01/05 00:52:45;;;;;;;26.45;4.22;;;10.80;99.90;;;;;;4943010;28;20400;-83
2023/01/05 00:55:11;;;;;;;20.70;4.22;;;10.90;99.90;;;;;;4932345;28;20094;-83
2023/01/05 00:57:37;;;;;;;21.15;3.95;;;10.90;99.90;;;;;;4931664;28;20039;-82
2023/01/05 01:00:06;;;;;;;17.67;3.13;;;10.90;99.90;;;;;;4913789;28;20085;-82
2023/01/05 01:02:32;;;;;;;18.95;2.97;;;10.90;99.90;;;;;;4918111;28;20045;-83
2023/01/05 01:04:57;;;;;;;29.88;4.97;;;10.80;99.90;;;;;;4913510;29;20032;-83
2023/01/05 01:07:25;;;;;;;32.42;4.88;;;10.90;99.90;;;;;;4909381;28;20035;-83
2023/01/05 01:09:51;;;;;;;23.95;5.00;;;10.90;99.90;;;;;;4928871;28;20486;-82
2023/01/05 01:12:17;;;;;;;29.92;4.68;;;10.90;99.90;;;;;;4921214;28;20047;-82
2023/01/05 01:14:45;;;;;;;15.98;2.75;;;10.80;99.90;;;;;;4915171;28;20024;-83
2023/01/05 01:17:11;;;;;;;23.55;4.60;;;10.90;99.90;;;;;;4943654;28;20572;-82
2023/01/05 01:19:44;;;;;;;23.88;4.20;;;10.80;99.90;;;;;;4929627;28;20036;-82
2023/01/05 01:22:10;;;;;;;20.02;3.58;;;10.80;99.90;;;;;;4942946;28;20488;-83
2023/01/05 01:24:36;;;;;;;19.30;3.45;;;10.80;99.90;;;;;;4933763;28;20029;-82
2023/01/05 01:27:02;;;;;;;27.48;4.18;;;10.80;99.90;;;;;;4932164;28;20110;-83
2023/01/05 01:29:28;;;;;;;18.42;2.83;;;10.70;99.90;;;;;;4942240;28;20035;-83
2023/01/05 01:31:54;;;;;;;19.67;3.58;;;10.80;99.90;;;;;;4946138;28;20181;-83
2023/01/05 01:34:19;;;;;;;23.00;4.22;;;10.80;99.90;;;;;;4915700;28;20031;-83
2023/01/05 01:36:45;;;;;;;9.98;2.58;;;10.80;99.90;;;;;;4926759;28;20081;-83
2023/01/05 01:39:11;;;;;;;16.75;3.95;;;10.80;99.90;;;;;;4928519;28;20044;-82
2023/01/05 01:41:36;;;;;;;15.18;2.15;;;10.80;99.90;;;;;;4942519;28;20395;-83
2023/01/05 01:44:22;;;;;;;15.60;3.85;;;10.80;99.90;;;;;;4932133;28;20392;-83
2023/01/05 01:46:47;;;;;;;20.93;3.57;;;10.70;99.90;;;;;;4936928;28;20031;-82
2023/01/05 01:49:13;;;;;;;19.25;3.58;;;10.80;99.90;;;;;;4930196;28;20430;-83
2023/01/05 01:52:04;;;;;;;16.77;3.78;;;10.90;99.90;;;;;;4949046;28;20042;-83
2023/01/05 01:54:30;;;;;;;19.38;4.43;;;10.80;99.90;;;;;;4930058;28;20491;-83
2023/01/05 01:56:55;;;;;;;22.42;4.05;;;10.80;99.90;;;;;;4930637;28;20046;-82
2023/01/05 01:59:21;;;;;;;9.07;2.42;;;10.80;99.90;;;;;;4946842;28;20039;-83
2023/01/05 02:01:48;;;;;;;17.52;4.13;;;10.70;99.90;;;;;;4929482;29;20587;-82
2023/01/05 02:04:13;;;;;;;25.33;3.80;;;10.80;99.90;;;;;;4928025;29;20039;-83
2023/01/05 02:06:39;;;;;;;15.65;3.83;;;10.80;99.90;;;;;;4928184;28;20035;-83
2023/01/05 02:09:05;;;;;;;19.98;3.83;;;10.70;99.90;;;;;;4924334;28;20031;-82
2023/01/05 02:11:47;;;;;;;10.68;2.95;;;10.70;99.90;;;;;;4946554;28;20039;-83
2023/01/05 02:14:33;;;;;;;11.50;2.22;;;10.70;99.90;;;;;;4930590;28;20046;-83
2023/01/05 02:17:15;;;;;;;;;;;10.70;99.90;;;;;;4945299;28;20074;-82
2023/01/05 02:20:07;;;;;;;16.15;3.75;;;10.70;99.90;;;;;;4928006;28;20029;-82
2023/01/05 02:22:41;;;;;;;21.30;4.00;;;10.70;99.90;;;;;;4917135;28;20041;-82
2023/01/05 02:25:22;;;;;;;18.02;3.42;;;10.70;99.90;;;;;;4936488;28;20534;-83
2023/01/05 02:28:06;;;;;;;18.30;2.78;;;10.70;99.90;;;;;;4946690;28;20035;-82
2023/01/05 02:30:59;;;;;;;14.32;3.63;;;10.70;99.90;;;;;;4948728;28;20118;-83
2023/01/05 02:33:28;;;;;;;17.63;3.60;;;10.60;99.90;;;;;;4945316;28;20523;-83
2023/01/05 02:36:13;;;;;;;10.65;3.28;;;10.70;99.90;;;;;;4939071;28;20106;-83
2023/01/05 02:38:45;;;;;;;9.13;3.40;;;10.70;99.90;;;;;;4918597;28;20036;-84
2023/01/05 02:41:24;;;;;;;26.02;5.15;;;10.70;99.90;;;;;;4928001;28;20039;-83
2023/01/05 02:43:50;;;;;;;18.95;3.45;;;10.60;99.90;;;;;;4930739;29;20035;-83
2023/01/05 02:46:16;;;;;;;25.77;6.25;;;10.60;99.90;;;;;;4933754;28;20380;-83
2023/01/05 02:48:41;;;;;;;20.00;4.97;;;10.60;99.90;;;;;;4929650;28;20525;-83
2023/01/05 02:51:09;;;;;;;16.67;3.75;;;10.60;99.90;;;;;;4932276;28;20116;-83
2023/01/05 02:53:40;;;;;;;17.58;4.07;;;10.60;99.90;;;;;;4946256;28;20418;-83
2023/01/05 02:56:09;;;;;;;19.60;3.72;;;10.60;99.90;;;;;;4924870;28;20040;-84
2023/01/05 02:59:02;;;;;;;19.58;3.58;;;10.60;99.90;;;;;;4944616;28;20496;-83
2023/01/05 03:01:36;;;;;;;20.77;4.55;;;10.60;99.90;;;;;;4946198;28;20407;-83
2023/01/05 03:04:12;;;;;;;19.10;4.50;;;10.60;99.90;;;;;;4931280;28;20043;-83
2023/01/05 03:06:55;;;;;;;16.50;4.15;;;10.60;99.90;;;;;;4929613;28;20123;-83
2023/01/05 03:09:24;;;;;;;12.65;2.97;;;10.60;99.90;;;;;;4932505;28;20059;-83
2023/01/05 03:15:03;;;;;;;21.23;4.10;;;10.60;99.90;;;;;;4941329;28;20054;-84
2023/01/05 03:17:33;;;;;;;25.58;4.22;;;10.60;99.90;;;;;;4915566;28;20035;-83
2023/01/05 03:19:59;;;;;;;22.38;5.57;;;10.60;99.90;;;;;;4930134;28;20036;-83
2023/01/05 03:36:30;;;;;;;30.40;6.30;;;10.60;99.90;;;;;;4942233;28;20074;-82
2023/01/05 03:38:56;;;;;;;28.27;4.60;;;10.60;99.90;;;;;;4929746;28;20510;-82
2023/01/05 03:41:22;;;;;;;16.77;3.75;;;10.60;99.90;;;;;;4914427;28;20035;-82
2023/01/05 03:43:47;;;;;;;29.73;5.88;;;10.60;99.90;;;;;;4932197;28;20082;-83
2023/01/05 03:46:15;;;;;;;16.13;3.45;;;10.40;99.90;;;;;;4943242;28;20127;-82
2023/01/05 03:48:41;;;;;;;28.27;3.65;;;10.50;99.90;;;;;;4932929;28;20035;-83
2023/01/05 03:51:06;;;;;;;28.92;4.22;;;10.50;99.90;;;;;;4929545;28;20032;-82
2023/01/05 03:53:32;;;;;;;19.45;4.45;;;10.50;99.90;;;;;;4945025;28;20046;-83
2023/01/05 03:55:57;;;;;;;20.17;3.53;;;10.40;99.90;;;;;;4932946;28;20411;-82
2023/01/05 03:58:23;;;;;;;16.20;3.70;;;10.40;99.90;;;;;;4913907;28;20039;-82
2023/01/05 04:00:48;;;;;;;24.70;4.72;;;10.50;99.90;;;;;;4946248;28;22245;-82
2023/01/05 04:03:14;;;;;;;14.10;3.50;;;10.40;99.90;;;;;;4942994;28;20078;-82
2023/01/05 04:05:46;;;;;;;31.02;5.55;;;10.40;99.90;;;;;;4925936;28;20050;-82
2023/01/05 04:08:11;;;;;;;30.10;4.93;;;10.50;99.90;;;;;;4927371;28;20503;-82
2023/01/05 04:10:37;;;;;;;24.90;4.25;;;10.40;99.90;;;;;;4929302;28;20027;-82
2023/01/05 04:13:02;;;;;;;21.45;5.35;;;10.40;99.90;;;;;;4941132;28;20035;-82
2023/01/05 04:15:28;;;;;;;22.77;3.88;;;10.50;99.90;;;;;;4945073;28;20054;-82
2023/01/05 04:17:53;;;;;;;19.92;4.53;;;10.40;99.90;;;;;;4928245;29;20031;-82
2023/01/05 04:20:19;;;;;;;19.75;4.68;;;10.50;99.90;;;;;;4928382;28;20039;-82
2023/01/05 04:22:45;;;;;;;22.95;3.63;;;10.50;99.90;;;;;;4927250;29;20027;-82
2023/01/05 04:25:10;;;;;;;22.00;4.43;;;10.50;99.90;;;;;;4911793;28;20053;-82
2023/01/05 04:27:36;;;;;;;28.98;4.60;;;10.40;99.90;;;;;;4944882;28;20101;-83
2023/01/05 04:30:02;;;;;;;32.88;6.47;;;10.40;99.90;;;;;;4931219;28;20066;-83
2023/01/05 04:32:27;;;;;;;25.42;4.80;;;10.40;99.90;;;;;;4930604;28;20035;-82
2023/01/05 04:34:53;;;;;;;24.65;4.72;;;10.50;99.90;;;;;;4927582;28;20119;-83
2023/01/05 04:37:18;;;;;;;12.77;3.03;;;10.40;99.90;;;;;;4926082;28;20453;-82
2023/01/05 04:39:44;;;;;;;17.45;3.45;;;10.40;99.90;;;;;;4932067;28;20061;-82
2023/01/05 04:42:09;;;;;;;15.25;3.08;;;10.40;99.90;;;;;;4942464;28;20039;-82
2023/01/05 04:44:35;;;;;;;24.88;4.55;;;10.40;99.90;;;;;;4925428;28;20031;-83
2023/01/05 04:47:01;;;;;;;22.20;4.45;;;10.40;99.90;;;;;;4929516;29;20050;-83
2023/01/05 04:49:26;;;;;;;25.90;4.38;;;10.40;99.90;;;;;;4941010;28;20117;-82
2023/01/05 04:51:52;;;;;;;16.52;3.72;;;10.40;99.90;;;;;;4926254;28;20133;-82
2023/01/05 04:54:17;;;;;;;17.58;3.78;;;10.40;99.90;;;;;;4928467;28;20030;-82
2023/01/05 04:56:43;;;;;;;15.63;3.58;;;10.40;99.90;;;;;;4927397;28;20070;-82
2023/01/05 04:59:08;;;;;;;24.88;3.80;;;10.40;99.90;;;;;;4931211;28;20125;-83
2023/01/05 05:01:34;;;;;;;18.98;4.65;;;10.40;99.90;;;;;;4927116;28;20035;-82
2023/01/05 05:04:00;;;;;;;18.17;3.13;;;10.40;99.90;;;;;;4925054;29;20066;-82
2023/01/05 05:06:25;;;;;;;21.27;3.75;;;10.40;99.90;;;;;;4915520;28;20035;-82
2023/01/05 05:08:51;;;;;;;21.48;6.38;;;10.40;99.90;;;;;;4942152;28;20040;-82
2023/01/05 05:11:16;;;;;;;12.63;2.80;;;10.40;99.90;;;;;;4943244;28;20118;-82
2023/01/05 05:13:42;;;;;;;22.40;6.07;;;10.40;99.90;;;;;;4925738;28;20023;-82
2023/01/05 05:16:07;;;;;;;18.00;3.75;;;10.40;99.90;;;;;;4928101;28;20508;-83
2023/01/05 05:18:33;;;;;;;24.60;4.35;;;10.40;99.90;;;;;;4929850;29;20542;-83
2023/01/05 05:20:59;;;;;;;9.43;3.08;;;10.30;99.90;;;;;;4940516;28;20555;-83
2023/01/05 05:23:24;;;;;;;27.55;4.45;;;10.30;99.90;;;;;;4915657;28;20058;-83
2023/01/05 05:25:50;;;;;;;17.20;2.83;;;10.40;99.90;;;;;;4914097;28;20070;-83
2023/01/05 05:28:16;;;;;;;10.68;2.22;;;10.30;99.90;;;;;;4916790;28;20499;-83
2023/01/05 05:30:42;;;;;;;21.55;4.50;;;10.20;99.90;;;;;;4931577;28;20107;-83
2023/01/05 05:33:08;;;;;;;18.70;4.00;;;10.20;99.90;;;;;;4943050;28;20035;-83
2023/01/05 05:35:33;;;;;;;22.73;4.13;;;10.20;99.90;;;;;;4914136;29;20032;-83
2023/01/05 05:38:00;;;;;;;17.15;3.97;;;10.20;99.90;;;;;;4929302;29;20399;-83
2023/01/05 05:40:25;;;;;;;15.73;3.20;;;10.10;99.90;;;;;;4910888;28;20045;-83
2023/01/05 05:42:51;;;;;;;30.65;5.70;;;10.10;99.90;;;;;;4931845;28;20031;-83
2023/01/05 05:45:16;;;;;;;48.53;8.85;;;10.00;99.90;;;;;;4934829;28;20043;-83
2023/01/05 05:47:42;;;;;;;24.13;4.53;;;10.00;99.90;;;;;;4924898;28;20098;-83
2023/01/05 05:50:13;;;;;;;15.82;3.72;;;9.90;99.90;;;;;;4929415;28;20079;-83
2023/01/05 05:52:38;;;;;;;18.15;3.80;;;10.00;99.90;;;;;;4912137;28;20031;-83
2023/01/05 05:55:04;;;;;;;25.30;5.43;;;10.00;99.90;;;;;;4916312;28;20200;-84
2023/01/05 05:57:30;;;;;;;23.83;5.55;;;10.00;99.90;;;;;;4926292;29;20042;-84
2023/01/05 05:59:59;;;;;;;24.08;5.18;;;10.00;99.90;;;;;;4923222;28;20458;-84
2023/01/05 06:02:25;;;;;;;16.50;4.18;;;9.90;99.90;;;;;;4949315;28;20035;-84
2023/01/05 06:04:50;;;;;;;24.45;5.18;;;9.90;99.90;;;;;;4933871;28;20023;-84
2023/01/05 06:07:16;;;;;;;29.55;5.10;;;9.90;99.90;;;;;;4940863;23;20038;-84
2023/01/05 06:09:42;;;;;;;30.35;5.70;;;9.90;99.90;;;;;;4954379;28;20041;-84
2023/01/05 06:12:07;;;;;;;27.55;6.15;;;9.90;99.90;;;;;;4949919;28;20031;-84
2023/01/05 06:14:33;;;;;;;32.78;5.95;;;9.90;99.90;;;;;;4970419;28;20470;-84
2023/01/05 06:16:59;;;;;;;25.67;3.92;;;9.80;99.90;;;;;;4939806;28;20569;-85
2023/01/05 06:19:25;;;;;;;20.88;4.93;;;9.80;99.90;;;;;;4939771;28;20073;-85
2023/01/05 06:21:50;;;;;;;18.08;5.07;;;9.80;99.90;;;;;;4953159;28;20053;-84
2023/01/05 06:24:16;;;;;;;18.98;4.45;;;9.70;99.90;;;;;;4940226;28;20038;-85
2023/01/05 06:26:41;;;;;;;21.08;3.72;;;9.70;99.90;;;;;;4940571;28;20084;-84
2023/01/05 06:29:07;;;;;;;15.68;2.95;;;9.70;99.90;;;;;;4956023;28;20038;-85
2023/01/05 06:31:32;;;;;;;31.40;6.93;;;9.80;99.90;;;;;;4954878;28;20050;-85
2023/01/05 06:33:58;;;;;;;30.20;6.53;;;9.70;99.90;;;;;;4939776;28;20122;-84
2023/01/05 06:36:24;;;;;;;19.35;4.95;;;9.70;99.90;;;;;;4953481;28;20042;-84
2023/01/05 06:38:49;;;;;;;17.08;5.28;;;9.70;99.90;;;;;;4940618;28;20045;-84
2023/01/05 06:41:16;;;;;;;10.77;3.58;;;9.60;99.90;;;;;;4950714;28;20038;-85
2023/01/05 06:43:41;;;;;;;16.98;4.75;;;9.70;99.90;;;;;;4950571;28;20034;-84
2023/01/05 06:46:07;;;;;;;18.05;5.60;;;9.60;99.90;;;;;;4953273;28;20026;-84
2023/01/05 06:48:33;;;;;;;7.85;3.10;;;9.60;99.90;;;;;;4952099;28;20038;-84
2023/01/05 06:50:58;;;;;;;21.55;4.82;;;9.70;99.90;;;;;;4939357;28;20141;-84
2023/01/05 06:53:24;;;;;;;13.48;3.38;;;9.70;99.90;;;;;;4954213;28;20030;-85
2023/01/05 06:55:49;;;;;;;20.95;4.40;;;9.80;99.90;;;;;;4938400;28;20034;-85
2023/01/05 06:58:15;;;;;;;28.27;7.18;;;9.70;99.90;;;;;;4948879;28;20093;-85
2023/01/05 07:00:41;;;;;;;17.05;3.40;;;9.60;99.90;;;;;;4936741;28;20062;-85
2023/01/05 07:03:06;;;;;;;36.03;9.73;;;9.70;99.90;;;;;;4952489;28;20033;-85
2023/01/05 07:05:32;;;;;;;23.27;6.13;;;9.60;99.90;;;;;;4920175;28;20094;-86
2023/01/05 07:07:57;;;;;;;26.48;5.68;;;9.50;99.90;;;;;;4970833;28;20478;-86
2023/01/05 07:10:29;;;;;;;17.25;4.90;;;9.60;99.90;;;;;;4946549;28;20053;-86
2023/01/05 07:13:10;;;;;;;36.55;9.23;;;9.60;99.90;;;;;;4933046;28;20065;-86
2023/01/05 07:15:35;;;;;;;41.47;10.48;;;9.60;99.90;;;;;;4940015;28;20030;-86
2023/01/05 07:18:04;;;;;;;30.10;9.63;;;9.60;99.90;;;;;;4920462;28;20042;-85
2023/01/05 07:20:30;;;;;;;32.97;7.50;;;9.60;99.90;;;;;;4938502;28;20034;-85
2023/01/05 07:22:55;;;;;;;29.13;6.70;;;9.60;99.90;;;;;;4943675;28;20041;-85
2023/01/05 07:25:21;;;;;;;19.92;4.68;;;9.60;99.90;;;;;;4952959;28;20034;-85
2023/01/05 07:28:02;;;;;;;34.08;6.55;;;9.60;99.90;;;;;;4938898;28;20027;-85
2023/01/05 07:30:28;;;;;;;16.88;5.28;;;9.60;99.90;;;;;;4956904;28;20113;-86
2023/01/05 07:33:09;;;;;;;30.60;7.22;;;9.60;99.90;;;;;;4943407;28;20115;-86
2023/01/05 07:38:56;;;;;;;28.08;6.50;;;9.50;99.90;;;;;;4971706;28;20125;-85
2023/01/05 07:44:46;;;;;;;17.70;4.32;;;9.60;99.90;;;;;;4939230;28;20148;-85
2023/01/05 07:47:11;;;;;;;34.10;7.57;;;9.60;99.90;;;;;;4914191;28;20515;-86
2023/01/05 07:50:10;;;;;;;25.35;6.38;;;9.60;99.90;;;;;;4925681;28;20040;-86
2023/01/05 07:52:47;;;;;;;27.77;7.78;;;9.60;99.90;;;;;;4922999;28;20483;-86
2023/01/05 07:55:16;;;;;;;25.15;5.53;;;9.50;99.90;;;;;;4947056;28;20533;-87
2023/01/05 07:57:47;;;;;;;20.55;4.72;;;9.60;99.90;;;;;;4916239;28;20081;-87
2023/01/05 08:04:08;;;;;;;14.93;3.90;;;9.50;99.90;;;;;;4964249;28;20498;-86
2023/01/05 08:14:20;;;;;;;21.77;6.43;;;9.50;99.90;;;;;;1425395;22;20311;-83
2023/01/05 08:16:58;;;;;;;24.92;6.80;;;9.50;99.90;;;;;;4966094;28;20042;-85
2023/01/05 08:19:27;;;;;;;22.80;5.50;;;9.60;99.90;;;;;;4938110;28;20510;-86
2023/01/05 08:21:52;;;;;;;26.98;7.18;;;9.60;99.90;;;;;;4951970;28;20022;-86
2023/01/05 08:24:18;;;;;;;33.00;7.53;;;9.60;99.90;;;;;;4943939;28;20041;-85
2023/01/05 08:26:43;;;;;;;36.88;6.68;;;9.50;99.90;;;;;;4936107;28;20105;-86
2023/01/05 08:29:09;;;;;;;22.58;5.07;;;9.60;99.90;;;;;;4942387;28;20030;-85
2023/01/05 08:31:38;;;;;;;23.77;5.95;;;9.60;99.90;;;;;;4968383;28;20378;-85
2023/01/05 08:34:03;;;;;;;33.60;8.82;;;9.60;99.90;;;;;;4948028;28;20037;-86
2023/01/05 08:36:32;;;;;;;28.92;6.45;;;9.60;99.90;;;;;;4937056;28;20031;-85
2023/01/05 08:39:00;;;;;;;19.33;4.55;;;9.60;99.90;;;;;;4921455;28;20476;-86
2023/01/05 08:41:34;;;;;;;29.42;7.00;;;9.60;99.90;;;;;;4954368;28;20034;-86
2023/01/05 08:44:15;;;;;;;18.75;5.35;;;9.70;99.90;;;;;;4956077;28;20411;-86
2023/01/05 08:46:47;;;;;;;36.75;7.75;;;9.60;99.90;;;;;;4952678;28;20089;-85
2023/01/05 08:49:23;;;;;;;15.57;5.55;;;9.60;99.90;;;;;;4966825;28;20049;-86
2023/01/05 08:51:48;;;;;;;32.05;7.03;;;9.70;99.90;;;;;;4957806;28;20042;-86
2023/01/05 08:54:14;;;;;;;35.03;7.03;;;9.60;99.90;;;;;;4951809;28;20041;-86
2023/01/05 09:00:55;;;;;;;17.98;5.75;;;9.70;99.90;;;;;;4922098;29;20054;-86
2023/01/05 09:03:23;;;;;;;34.40;9.63;;;9.70;99.90;;;;;;4905351;29;20048;-85
2023/01/05 09:05:53;;;;;;;22.13;6.97;;;9.70;99.90;;;;;;4890080;29;20036;-85
2023/01/05 09:08:40;;;;;;;20.33;6.38;;;9.70;99.90;;;;;;4871893;29;20130;-85
2023/01/05 09:14:46;;;;;;;23.00;5.78;;;9.80;99.90;;;;;;4896473;29;20127;-84
2023/01/05 09:17:17;;;;;;;38.40;7.85;;;9.80;99.90;;;;;;4891073;29;20040;-85
2023/01/05 09:19:46;;;;;;;30.67;7.07;;;9.80;99.90;;;;;;4885486;29;20039;-86
2023/01/05 09:22:17;;;;;;;23.77;5.03;;;9.80;99.90;;;;;;4880434;29;20580;-86
2023/01/05 09:24:42;;;;;;;30.05;7.70;;;9.80;99.90;;;;;;4877317;29;20036;-86
2023/01/05 09:27:13;;;;;;;13.15;3.90;;;9.80;99.90;;;;;;4863582;29;20040;-85
2023/01/05 09:29:48;;;;;;;28.67;6.82;;;9.90;99.90;;;;;;4887117;29;20479;-85
2023/01/05 09:32:18;;;;;;;41.53;8.63;;;9.90;99.90;;;;;;4870021;29;20044;-85
2023/01/05 09:35:11;;;;;;;33.58;6.82;;;9.90;99.90;;;;;;4879824;29;20036;-85
2023/01/05 09:37:45;;;;;;;39.67;9.57;;;9.90;99.90;;;;;;4960725;28;20375;-85
2023/01/05 09:40:12;;;;;;;40.53;9.20;;;9.90;99.90;;;;;;4917575;28;20031;-85
2023/01/05 09:42:38;;;;;;;45.90;8.18;;;9.90;99.90;;;;;;4916807;28;20511;-85
2023/01/05 09:45:04;;;;;;;33.13;8.73;;;9.90;99.90;;;;;;4919612;28;20074;-86
2023/01/05 09:47:41;;;;;;;40.47;8.13;;;9.90;99.90;;;;;;4924438;28;20019;-85
2023/01/05 09:50:16;;;;;;;29.58;6.78;;;9.90;99.90;;;;;;4899240;28;20035;-85
2023/01/05 09:52:42;;;;;;;45.60;8.30;;;9.90;99.90;;;;;;4933489;28;20023;-85
2023/01/05 09:55:20;;;;;;;36.28;8.35;;;9.90;99.90;;;;;;4933009;28;20499;-85
2023/01/05 09:57:52;;;;;;;38.95;7.78;;;10.00;99.90;;;;;;4948330;28;20022;-85
2023/01/05 10:00:18;;;;;;;11.00;3.10;;;10.00;99.90;;;;;;4916626;28;20158;-85
2023/01/05 10:02:51;;;;;;;27.98;6.53;;;10.00;99.90;;;;;;4948024;28;20113;-85
2023/01/05 10:05:16;;;;;;;25.38;5.35;;;9.90;99.90;;;;;;4932437;28;20868;-85
2023/01/05 10:07:52;;;;;;;30.33;5.13;;;10.00;99.90;;;;;;4935340;28;20027;-85
2023/01/05 10:10:36;;;;;;;;;;;10.00;99.90;;;;;;4937938;28;20034;-85
2023/01/05 10:13:02;;;;;;;32.53;6.97;;;10.00;99.90;;;;;;4947846;28;19939;-85
2023/01/05 10:15:31;;;;;;;32.65;7.65;;;10.10;99.90;;;;;;4933089;28;20035;-85
2023/01/05 10:17:56;;;;;;;22.77;5.28;;;10.10;99.90;;;;;;4949212;28;20498;-85
2023/01/05 10:20:39;;;;;;;29.02;7.60;;;10.20;99.90;;;;;;4935663;28;20032;-84
2023/01/05 10:23:45;;;;;;;29.73;7.15;;;10.10;99.90;;;;;;4934730;28;20038;-85
2023/01/05 10:26:19;;;;;;;48.55;8.80;;;10.20;99.90;;;;;;4944702;28;20038;-85
2023/01/05 10:29:12;;;;;;;36.05;6.88;;;10.20;99.90;;;;;;4931283;28;20031;-85
2023/01/05 10:31:53;;;;;;;24.48;4.60;;;10.20;99.90;;;;;;4936714;28;20042;-84
2023/01/05 10:34:23;;;;;;;37.15;9.18;;;10.30;99.90;;;;;;4950552;28;20479;-84
2023/01/05 10:37:20;;;;;;;23.83;5.95;;;10.30;99.90;;;;;;4936556;28;20027;-84
2023/01/05 10:40:09;;;;;;;32.78;5.93;;;10.30;99.90;;;;;;4926005;28;20043;-84
2023/01/05 10:43:12;;;;;;;27.30;5.97;;;10.40;99.90;;;;;;4968128;28;20364;-85
2023/01/05 10:45:37;;;;;;;23.33;6.15;;;10.40;99.90;;;;;;4948820;28;20506;-85
2023/01/05 10:48:03;;;;;;;20.77;4.88;;;10.40;99.90;;;;;;4948193;28;20058;-84
2023/01/05 10:51:08;;;;;;;34.95;5.72;;;10.40;99.90;;;;;;4928716;28;20023;-84
2023/01/05 10:53:38;;;;;;;22.20;4.68;;;10.50;99.90;;;;;;4937349;28;20035;-84
2023/01/05 10:56:12;;;;;;;19.48;4.57;;;10.50;99.90;;;;;;4920170;28;20042;-84
2023/01/05 10:58:39;;;;;;;24.27;6.93;;;10.40;99.90;;;;;;4931688;28;20035;-84
2023/01/05 11:01:13;;;;;;;33.58;7.10;;;10.60;99.90;;;;;;4935064;28;20042;-84
2023/01/05 11:03:44;;;;;;;34.05;7.18;;;10.50;99.90;;;;;;4935845;28;20482;-84
2023/01/05 11:06:18;;;;;;;24.42;4.60;;;10.70;99.90;;;;;;4917685;28;20398;-84
2023/01/05 11:11:32;;;;;;;18.85;5.55;;;10.70;99.90;;;;;;4905868;29;20031;-85
2023/01/05 11:14:01;;;;;;;31.27;5.97;;;10.80;99.90;;;;;;4908408;28;20513;-84
2023/01/05 11:16:33;;;;;;;19.50;3.58;;;10.80;99.90;;;;;;4917957;28;20043;-85
2023/01/05 11:19:06;;;;;;;29.13;5.38;;;10.80;99.90;;;;;;4911481;28;20078;-85
2023/01/05 11:21:35;;;;;;;20.83;4.55;;;10.90;99.90;;;;;;4918958;28;20065;-84
2023/01/05 11:24:01;;;;;;;28.77;5.05;;;10.90;99.90;;;;;;4952416;28;20034;-85
2023/01/05 11:26:32;;;;;;;24.45;4.20;;;10.90;99.90;;;;;;4933255;28;20354;-84
2023/01/05 11:29:10;;;;;;;26.10;3.10;;;11.00;99.90;;;;;;4969756;28;20035;-85
2023/01/05 11:31:41;;;;;;;28.45;7.18;;;11.10;99.90;;;;;;4950949;28;20035;-84
2023/01/05 11:34:16;;;;;;;15.32;3.00;;;11.10;99.90;;;;;;4952739;28;20045;-84
2023/01/05 11:36:42;;;;;;;18.13;4.07;;;11.10;99.90;;;;;;4950649;28;20093;-84
2023/01/05 11:39:19;;;;;;;32.25;4.85;;;11.20;99.90;;;;;;4935011;28;20141;-84
2023/01/05 11:41:44;;;;;;;28.15;4.22;;;11.10;99.90;;;;;;4949744;28;20041;-84
2023/01/05 11:44:20;;;;;;;27.45;4.53;;;11.10;99.90;;;;;;4943934;28;20031;-84
2023/01/05 11:46:47;;;;;;;33.58;5.50;;;11.00;99.90;;;;;;4919390;28;20451;-84
2023/01/05 11:49:16;;;;;;;18.27;3.38;;;11.00;99.90;;;;;;4918695;28;20035;-84
2023/01/05 11:51:41;;;;;;;16.42;4.18;;;11.00;99.90;;;;;;4938255;28;20035;-84
2023/01/05 11:54:26;;;;;;;27.70;6.32;;;11.00;99.90;;;;;;4945529;28;20521;-84
2023/01/05 11:57:27;;;;;;;24.27;4.38;;;11.10;99.90;;;;;;4933902;29;20043;-85
2023/01/05 11:59:54;;;;;;;21.13;3.60;;;11.20;99.90;;;;;;4884837;29;20505;-84
2023/01/05 12:02:49;;;;;;;17.65;3.10;;;11.20;99.90;;;;;;4926527;28;20121;-82
2023/01/05 12:05:44;;;;;;;25.95;6.55;;;11.20;99.90;;;;;;4952504;28;20811;-83
2023/01/05 12:08:36;;;;;;;17.45;3.63;;;11.30;99.90;;;;;;4935614;28;20050;-83
2023/01/05 12:11:18;;;;;;;25.23;5.22;;;11.30;99.90;;;;;;4935998;28;20390;-83
2023/01/05 12:14:11;;;;;;;21.10;4.70;;;11.30;99.90;;;;;;4915500;28;20054;-83
2023/01/05 12:16:58;;;;;;;18.85;3.90;;;11.40;99.90;;;;;;4949640;28;20035;-83
2023/01/05 12:19:51;;;;;;;24.65;4.32;;;11.40;99.90;;;;;;4918623;28;20403;-83
2023/01/05 12:22:37;;;;;;;27.08;5.03;;;11.40;99.90;;;;;;4965496;28;20117;-83
2023/01/05 12:25:22;;;;;;;13.25;3.17;;;11.40;99.90;;;;;;4951535;28;20102;-83
2023/01/05 12:28:19;;;;;;;26.80;5.18;;;11.50;99.90;;;;;;4945125;28;20046;-83
2023/01/05 12:31:11;;;;;;;23.05;4.80;;;11.50;99.90;;;;;;4942165;28;20037;-84
2023/01/05 12:34:01;;;;;;;28.38;4.28;;;11.50;99.90;;;;;;4942449;28;20083;-83
2023/01/05 12:36:45;;;;;;;15.70;2.97;;;11.50;99.90;;;;;;4945260;28;20285;-83
2023/01/05 12:39:26;;;;;;;26.08;4.82;;;11.50;99.90;;;;;;4933466;28;20039;-83
2023/01/05 12:42:20;;;;;;;10.07;2.38;;;11.60;99.90;;;;;;4950190;28;20529;-83
2023/01/05 12:45:07;;;;;;;11.90;3.03;;;11.70;99.90;;;;;;4932832;28;20600;-83
2023/01/05 12:47:44;;;;;;;26.50;4.72;;;11.80;99.90;;;;;;4962928;28;20035;-83
2023/01/05 12:50:26;;;;;;;20.23;4.25;;;11.80;99.90;;;;;;4964973;28;20558;-83
2023/01/05 12:53:09;;;;;;;20.20;4.40;;;11.90;99.90;;;;;;4918209;28;20154;-83
2023/01/05 12:55:38;;;;;;;22.38;3.80;;;11.90;99.90;;;;;;4945092;28;20711;-83
2023/01/05 12:58:09;;;;;;;19.23;3.80;;;12.00;99.90;;;;;;4932130;28;20045;-83
2023/01/05 13:00:36;;;;;;;10.82;2.45;;;12.10;99.90;;;;;;4915352;28;20039;-83
2023/01/05 13:03:09;;;;;;;19.55;3.60;;;12.20;99.90;;;;;;4920165;28;20042;-83
2023/01/05 13:05:55;;;;;;;25.65;4.32;;;12.30;99.90;;;;;;4913490;28;20106;-83
2023/01/05 13:08:41;;;;;;;;;;;12.30;99.90;;;;;;4934252;28;20035;-83
2023/01/05 13:11:34;;;;;;;26.70;4.32;;;12.20;99.90;;;;;;4949480;28;20322;-83
2023/01/05 13:14:02;;;;;;;16.05;4.28;;;12.20;99.90;;;;;;4929998;28;20043;-83
2023/01/05 13:16:29;;;;;;;20.38;3.30;;;12.30;99.90;;;;;;4950778;28;20455;-83
2023/01/05 13:19:22;;;;;;;26.13;4.95;;;12.30;99.90;;;;;;4917129;28;20065;-82
2023/01/05 13:21:48;;;;;;;24.77;5.15;;;12.30;99.90;;;;;;4931311;28;20142;-83
2023/01/05 13:24:38;;;;;;;26.85;4.40;;;12.30;99.90;;;;;;4926472;28;20118;-83
2023/01/05 13:27:04;;;;;;;23.63;6.18;;;12.30;99.90;;;;;;4936063;28;20038;-83
2023/01/05 13:29:33;;;;;;;20.48;4.75;;;12.30;99.90;;;;;;4906582;28;20042;-83
2023/01/05 13:32:11;;;;;;;20.05;5.10;;;12.40;99.90;;;;;;4902653;28;20035;-83
2023/01/05 13:35:00;;;;;;;30.20;6.13;;;12.40;99.90;;;;;;4940688;28;20031;-83
2023/01/05 13:37:38;;;;;;;27.85;6.53;;;12.40;99.90;;;;;;4962567;28;20430;-82
2023/01/05 13:40:35;;;;;;;19.83;4.20;;;12.40;99.90;;;;;;4963701;28;20054;-83
2023/01/05 13:43:08;;;;;;;17.23;5.38;;;12.50;99.90;;;;;;4881945;28;20043;-83
2023/01/05 13:45:55;;;;;;;26.20;6.28;;;12.50;99.90;;;;;;4933457;28;20081;-83
2023/01/05 13:48:26;;;;;;;20.13;5.10;;;12.50;99.90;;;;;;4965038;28;20110;-83
2023/01/05 13:51:14;;;;;;;8.60;3.63;;;12.40;99.90;;;;;;4946451;28;20035;-83
2023/01/05 13:53:40;;;;;;;23.98;6.55;;;12.50;99.90;;;;;;4963401;28;20483;-82
2023/01/05 13:56:17;;;;;;;27.42;4.95;;;12.40;99.90;;;;;;4918419;28;20110;-83
2023/01/05 13:58:44;;;;;;;19.60;4.60;;;12.40;99.90;;;;;;4949131;28;20600;-83